sensor_id;sensor_type;location;lat;lon;timestamp;P1;durP1;ratioP1;P2;durP2;ratioP2
13660;SDS011;6903;49.480;11.102;2022-08-18T00:00:29;10.43;;;6.05;;
13660;SDS011;6903;49.480;11.102;2022-08-18T00:02:57;8.77;;;5.90;;
13660;SDS011;6903;49.480;11.102;2022-08-18T00:05:27;8.60;;;6.57;;
13660;SDS011;6903;49.480;11.102;2022-08-18T00:07:53;5.97;;;5.38;;
13660;SDS011;6903;49.480;11.102;2022-08-18T00:10:18;6.85;;;5.10;;
13660;SDS011;6903;49.480;11.102;2022-08-18T00:12:43;7.60;;;5.05;;
13660;SDS011;6903;49.480;11.102;2022-08-18T00:15:10;5.95;;;5.20;;
13660;SDS011;6903;49.480;11.102;2022-08-18T00:17:38;7.18;;;5.38;;
13660;SDS011;6903;49.480;11.102;2022-08-18T00:20:05;5.50;;;4.47;;
13660;SDS011;6903;49.480;11.102;2022-08-18T00:22:33;7.38;;;5.03;;
13660;SDS011;6903;49.480;11.102;2022-08-18T00:24:58;6.38;;;4.32;;
13660;SDS011;6903;49.480;11.102;2022-08-18T00:27:25;6.70;;;4.65;;
13660;SDS011;6903;49.480;11.102;2022-08-18T00:29:53;4.78;;;4.28;;
13660;SDS011;6903;49.480;11.102;2022-08-18T00:32:21;6.03;;;4.00;;
13660;SDS011;6903;49.480;11.102;2022-08-18T00:34:48;8.02;;;4.20;;
13660;SDS011;6903;49.480;11.102;2022-08-18T00:37:13;9.32;;;4.63;;
13660;SDS011;6903;49.480;11.102;2022-08-18T00:39:39;8.88;;;5.00;;
13660;SDS011;6903;49.480;11.102;2022-08-18T00:42:13;6.88;;;4.10;;
13660;SDS011;6903;49.480;11.102;2022-08-18T00:44:41;4.55;;;3.95;;
13660;SDS011;6903;49.480;11.102;2022-08-18T00:47:06;6.57;;;4.15;;
13660;SDS011;6903;49.480;11.102;2022-08-18T00:49:32;8.00;;;4.15;;
13660;SDS011;6903;49.480;11.102;2022-08-18T00:51:57;6.07;;;3.65;;
13660;SDS011;6903;49.480;11.102;2022-08-18T00:54:26;4.60;;;3.95;;
13660;SDS011;6903;49.480;11.102;2022-08-18T00:56:55;4.32;;;3.45;;
13660;SDS011;6903;49.480;11.102;2022-08-18T00:59:40;4.25;;;3.55;;
13660;SDS011;6903;49.480;11.102;2022-08-18T01:02:10;5.30;;;3.75;;
13660;SDS011;6903;49.480;11.102;2022-08-18T01:04:44;5.20;;;3.95;;
13660;SDS011;6903;49.480;11.102;2022-08-18T01:07:41;4.45;;;3.85;;
13660;SDS011;6903;49.480;11.102;2022-08-18T01:10:13;6.30;;;3.83;;
13660;SDS011;6903;49.480;11.102;2022-08-18T01:12:52;4.93;;;3.78;;
13660;SDS011;6903;49.480;11.102;2022-08-18T01:15:19;9.52;;;4.60;;
13660;SDS011;6903;49.480;11.102;2022-08-18T01:17:46;7.70;;;4.47;;
13660;SDS011;6903;49.480;11.102;2022-08-18T01:20:33;5.65;;;4.50;;
13660;SDS011;6903;49.480;11.102;2022-08-18T01:23:27;4.30;;;3.70;;
13660;SDS011;6903;49.480;11.102;2022-08-18T01:25:54;7.40;;;5.20;;
13660;SDS011;6903;49.480;11.102;2022-08-18T01:28:34;4.15;;;3.80;;
13660;SDS011;6903;49.480;11.102;2022-08-18T01:31:03;7.78;;;4.93;;
13660;SDS011;6903;49.480;11.102;2022-08-18T01:33:31;4.70;;;4.30;;
13660;SDS011;6903;49.480;11.102;2022-08-18T01:36:08;4.90;;;4.50;;
13660;SDS011;6903;49.480;11.102;2022-08-18T01:38:42;5.30;;;4.60;;
13660;SDS011;6903;49.480;11.102;2022-08-18T01:41:09;6.47;;;4.82;;
13660;SDS011;6903;49.480;11.102;2022-08-18T01:43:34;6.43;;;5.85;;
13660;SDS011;6903;49.480;11.102;2022-08-18T01:46:01;6.60;;;5.47;;
13660;SDS011;6903;49.480;11.102;2022-08-18T01:48:28;5.28;;;4.85;;
13660;SDS011;6903;49.480;11.102;2022-08-18T01:50:58;6.78;;;4.85;;
13660;SDS011;6903;49.480;11.102;2022-08-18T01:53:27;7.95;;;6.90;;
13660;SDS011;6903;49.480;11.102;2022-08-18T01:55:53;9.93;;;8.20;;
13660;SDS011;6903;49.480;11.102;2022-08-18T01:58:19;8.23;;;6.72;;
13660;SDS011;6903;49.480;11.102;2022-08-18T02:00:55;8.90;;;8.00;;
13660;SDS011;6903;49.480;11.102;2022-08-18T02:03:27;5.10;;;4.70;;
13660;SDS011;6903;49.480;11.102;2022-08-18T02:05:59;8.50;;;6.22;;
13660;SDS011;6903;49.480;11.102;2022-08-18T02:08:27;7.05;;;5.90;;
13660;SDS011;6903;49.480;11.102;2022-08-18T02:10:53;9.38;;;8.27;;
13660;SDS011;6903;49.480;11.102;2022-08-18T02:13:20;9.10;;;8.02;;
13660;SDS011;6903;49.480;11.102;2022-08-18T02:15:45;6.60;;;6.00;;
13660;SDS011;6903;49.480;11.102;2022-08-18T02:18:14;11.05;;;10.10;;
13660;SDS011;6903;49.480;11.102;2022-08-18T02:20:45;8.68;;;7.88;;
13660;SDS011;6903;49.480;11.102;2022-08-18T02:23:12;11.45;;;10.45;;
13660;SDS011;6903;49.480;11.102;2022-08-18T02:25:38;11.35;;;10.10;;
13660;SDS011;6903;49.480;11.102;2022-08-18T02:28:06;12.93;;;11.52;;
13660;SDS011;6903;49.480;11.102;2022-08-18T02:30:31;14.07;;;11.45;;
13660;SDS011;6903;49.480;11.102;2022-08-18T02:32:58;13.45;;;12.25;;
13660;SDS011;6903;49.480;11.102;2022-08-18T02:35:24;12.13;;;11.00;;
13660;SDS011;6903;49.480;11.102;2022-08-18T02:37:49;10.18;;;9.27;;
13660;SDS011;6903;49.480;11.102;2022-08-18T02:40:15;14.82;;;13.48;;
13660;SDS011;6903;49.480;11.102;2022-08-18T02:42:42;13.07;;;11.90;;
13660;SDS011;6903;49.480;11.102;2022-08-18T02:45:08;13.35;;;12.05;;
13660;SDS011;6903;49.480;11.102;2022-08-18T02:47:34;12.15;;;11.05;;
13660;SDS011;6903;49.480;11.102;2022-08-18T02:49:59;14.77;;;13.30;;
13660;SDS011;6903;49.480;11.102;2022-08-18T02:52:24;14.77;;;13.27;;
13660;SDS011;6903;49.480;11.102;2022-08-18T02:54:57;16.30;;;14.55;;
13660;SDS011;6903;49.480;11.102;2022-08-18T02:57:26;15.20;;;13.65;;
13660;SDS011;6903;49.480;11.102;2022-08-18T02:59:52;14.95;;;13.55;;
13660;SDS011;6903;49.480;11.102;2022-08-18T03:02:17;14.57;;;13.18;;
13660;SDS011;6903;49.480;11.102;2022-08-18T03:04:42;14.77;;;13.38;;
13660;SDS011;6903;49.480;11.102;2022-08-18T03:07:08;15.25;;;13.75;;
13660;SDS011;6903;49.480;11.102;2022-08-18T03:09:33;15.75;;;14.35;;
13660;SDS011;6903;49.480;11.102;2022-08-18T03:11:59;16.80;;;15.13;;
13660;SDS011;6903;49.480;11.102;2022-08-18T03:14:25;15.45;;;13.82;;
13660;SDS011;6903;49.480;11.102;2022-08-18T03:16:51;17.10;;;15.32;;
13660;SDS011;6903;49.480;11.102;2022-08-18T03:19:16;16.50;;;14.40;;
13660;SDS011;6903;49.480;11.102;2022-08-18T03:21:43;13.13;;;11.82;;
13660;SDS011;6903;49.480;11.102;2022-08-18T03:24:10;15.38;;;14.00;;
13660;SDS011;6903;49.480;11.102;2022-08-18T03:26:38;15.47;;;13.87;;
13660;SDS011;6903;49.480;11.102;2022-08-18T03:29:05;14.90;;;13.48;;
13660;SDS011;6903;49.480;11.102;2022-08-18T03:31:31;14.63;;;13.20;;
13660;SDS011;6903;49.480;11.102;2022-08-18T03:33:57;14.02;;;12.50;;
13660;SDS011;6903;49.480;11.102;2022-08-18T03:36:24;16.63;;;14.95;;
13660;SDS011;6903;49.480;11.102;2022-08-18T03:38:52;15.30;;;13.90;;
13660;SDS011;6903;49.480;11.102;2022-08-18T03:41:19;14.80;;;13.43;;
13660;SDS011;6903;49.480;11.102;2022-08-18T03:43:47;16.02;;;14.38;;
13660;SDS011;6903;49.480;11.102;2022-08-18T03:46:13;15.40;;;13.82;;
13660;SDS011;6903;49.480;11.102;2022-08-18T03:48:40;15.68;;;14.10;;
13660;SDS011;6903;49.480;11.102;2022-08-18T03:51:18;14.40;;;13.00;;
13660;SDS011;6903;49.480;11.102;2022-08-18T03:53:47;14.05;;;12.68;;
13660;SDS011;6903;49.480;11.102;2022-08-18T03:56:15;14.43;;;12.95;;
13660;SDS011;6903;49.480;11.102;2022-08-18T03:58:48;15.07;;;13.30;;
13660;SDS011;6903;49.480;11.102;2022-08-18T04:01:21;14.07;;;12.68;;
13660;SDS011;6903;49.480;11.102;2022-08-18T04:03:53;14.57;;;13.27;;
13660;SDS011;6903;49.480;11.102;2022-08-18T04:06:22;13.85;;;12.45;;
13660;SDS011;6903;49.480;11.102;2022-08-18T04:08:51;12.40;;;11.20;;
13660;SDS011;6903;49.480;11.102;2022-08-18T04:11:17;16.75;;;13.73;;
13660;SDS011;6903;49.480;11.102;2022-08-18T04:13:43;14.32;;;12.88;;
13660;SDS011;6903;49.480;11.102;2022-08-18T04:16:09;15.70;;;13.70;;
13660;SDS011;6903;49.480;11.102;2022-08-18T04:18:34;14.88;;;13.35;;
13660;SDS011;6903;49.480;11.102;2022-08-18T04:21:04;13.75;;;12.55;;
13660;SDS011;6903;49.480;11.102;2022-08-18T04:23:32;15.25;;;13.13;;
13660;SDS011;6903;49.480;11.102;2022-08-18T04:25:59;13.57;;;12.23;;
13660;SDS011;6903;49.480;11.102;2022-08-18T04:28:26;13.40;;;12.10;;
13660;SDS011;6903;49.480;11.102;2022-08-18T04:30:52;13.80;;;12.40;;
13660;SDS011;6903;49.480;11.102;2022-08-18T04:33:18;14.77;;;12.93;;
13660;SDS011;6903;49.480;11.102;2022-08-18T04:35:44;14.05;;;12.60;;
13660;SDS011;6903;49.480;11.102;2022-08-18T04:38:11;13.05;;;11.90;;
13660;SDS011;6903;49.480;11.102;2022-08-18T04:40:36;13.30;;;12.10;;
13660;SDS011;6903;49.480;11.102;2022-08-18T04:43:02;14.27;;;12.80;;
13660;SDS011;6903;49.480;11.102;2022-08-18T04:45:27;14.60;;;13.20;;
13660;SDS011;6903;49.480;11.102;2022-08-18T04:47:53;14.20;;;12.95;;
13660;SDS011;6903;49.480;11.102;2022-08-18T04:50:19;15.02;;;13.45;;
13660;SDS011;6903;49.480;11.102;2022-08-18T04:52:45;14.55;;;13.15;;
13660;SDS011;6903;49.480;11.102;2022-08-18T04:55:29;16.10;;;13.82;;
13660;SDS011;6903;49.480;11.102;2022-08-18T04:57:55;14.27;;;12.98;;
13660;SDS011;6903;49.480;11.102;2022-08-18T05:00:22;14.55;;;13.07;;
13660;SDS011;6903;49.480;11.102;2022-08-18T05:02:47;14.10;;;12.90;;
13660;SDS011;6903;49.480;11.102;2022-08-18T05:05:13;13.60;;;12.40;;
13660;SDS011;6903;49.480;11.102;2022-08-18T05:07:42;14.90;;;12.48;;
13660;SDS011;6903;49.480;11.102;2022-08-18T05:10:09;14.20;;;12.90;;
13660;SDS011;6903;49.480;11.102;2022-08-18T05:12:36;13.07;;;11.82;;
13660;SDS011;6903;49.480;11.102;2022-08-18T05:15:02;13.88;;;12.57;;
13660;SDS011;6903;49.480;11.102;2022-08-18T05:17:27;12.77;;;11.60;;
13660;SDS011;6903;49.480;11.102;2022-08-18T05:19:53;13.52;;;12.15;;
13660;SDS011;6903;49.480;11.102;2022-08-18T05:22:18;13.48;;;11.85;;
13660;SDS011;6903;49.480;11.102;2022-08-18T05:24:45;13.43;;;12.05;;
13660;SDS011;6903;49.480;11.102;2022-08-18T05:27:11;11.07;;;10.05;;
13660;SDS011;6903;49.480;11.102;2022-08-18T05:29:37;9.63;;;8.65;;
13660;SDS011;6903;49.480;11.102;2022-08-18T05:32:03;10.63;;;9.70;;
13660;SDS011;6903;49.480;11.102;2022-08-18T05:34:32;11.07;;;9.95;;
13660;SDS011;6903;49.480;11.102;2022-08-18T05:39:45;11.55;;;10.43;;
13660;SDS011;6903;49.480;11.102;2022-08-18T05:42:20;11.95;;;10.75;;
13660;SDS011;6903;49.480;11.102;2022-08-18T05:44:49;10.40;;;9.43;;
13660;SDS011;6903;49.480;11.102;2022-08-18T05:47:30;10.40;;;9.50;;
13660;SDS011;6903;49.480;11.102;2022-08-18T05:49:57;9.40;;;8.40;;
13660;SDS011;6903;49.480;11.102;2022-08-18T05:52:32;9.77;;;8.88;;
13660;SDS011;6903;49.480;11.102;2022-08-18T05:55:04;9.63;;;8.82;;
13660;SDS011;6903;49.480;11.102;2022-08-18T05:58:03;9.35;;;8.45;;
13660;SDS011;6903;49.480;11.102;2022-08-18T06:00:32;10.35;;;9.23;;
13660;SDS011;6903;49.480;11.102;2022-08-18T06:03:14;7.88;;;7.18;;
13660;SDS011;6903;49.480;11.102;2022-08-18T06:05:53;7.13;;;6.38;;
13660;SDS011;6903;49.480;11.102;2022-08-18T06:08:30;8.07;;;7.32;;
13660;SDS011;6903;49.480;11.102;2022-08-18T06:11:01;8.98;;;5.80;;
13660;SDS011;6903;49.480;11.102;2022-08-18T06:13:27;6.28;;;5.75;;
13660;SDS011;6903;49.480;11.102;2022-08-18T06:16:04;7.10;;;6.50;;
13660;SDS011;6903;49.480;11.102;2022-08-18T06:21:42;5.93;;;5.43;;
13660;SDS011;6903;49.480;11.102;2022-08-18T06:27:00;7.65;;;6.85;;
13660;SDS011;6903;49.480;11.102;2022-08-18T06:29:57;8.93;;;8.13;;
13660;SDS011;6903;49.480;11.102;2022-08-18T06:38:02;8.82;;;7.90;;
13660;SDS011;6903;49.480;11.102;2022-08-18T06:40:59;8.38;;;7.57;;
13660;SDS011;6903;49.480;11.102;2022-08-18T06:43:32;8.38;;;7.38;;
13660;SDS011;6903;49.480;11.102;2022-08-18T06:46:02;8.43;;;7.50;;
13660;SDS011;6903;49.480;11.102;2022-08-18T06:48:39;7.63;;;7.03;;
13660;SDS011;6903;49.480;11.102;2022-08-18T06:51:12;8.40;;;7.00;;
13660;SDS011;6903;49.480;11.102;2022-08-18T06:54:42;6.97;;;6.38;;
13660;SDS011;6903;49.480;11.102;2022-08-18T06:56:47;7.32;;;6.70;;
13660;SDS011;6903;49.480;11.102;2022-08-18T07:01:58;6.28;;;5.80;;
13660;SDS011;6903;49.480;11.102;2022-08-18T07:04:31;6.75;;;6.15;;
13660;SDS011;6903;49.480;11.102;2022-08-18T07:07:19;7.40;;;6.70;;
13660;SDS011;6903;49.480;11.102;2022-08-18T07:09:53;7.07;;;6.45;;
13660;SDS011;6903;49.480;11.102;2022-08-18T07:12:21;6.78;;;6.18;;
13660;SDS011;6903;49.480;11.102;2022-08-18T07:14:52;6.35;;;5.75;;
13660;SDS011;6903;49.480;11.102;2022-08-18T07:17:21;7.28;;;6.57;;
13660;SDS011;6903;49.480;11.102;2022-08-18T07:19:55;7.50;;;6.80;;
13660;SDS011;6903;49.480;11.102;2022-08-18T07:22:25;7.45;;;6.80;;
13660;SDS011;6903;49.480;11.102;2022-08-18T07:24:51;7.72;;;7.10;;
13660;SDS011;6903;49.480;11.102;2022-08-18T07:27:20;7.53;;;6.93;;
13660;SDS011;6903;49.480;11.102;2022-08-18T07:30:02;8.88;;;7.53;;
13660;SDS011;6903;49.480;11.102;2022-08-18T07:32:49;7.90;;;7.20;;
13660;SDS011;6903;49.480;11.102;2022-08-18T07:35:19;8.15;;;7.35;;
13660;SDS011;6903;49.480;11.102;2022-08-18T07:37:53;7.25;;;6.65;;
13660;SDS011;6903;49.480;11.102;2022-08-18T07:43:04;9.32;;;8.43;;
13660;SDS011;6903;49.480;11.102;2022-08-18T07:45:36;8.27;;;7.03;;
13660;SDS011;6903;49.480;11.102;2022-08-18T07:53:52;8.73;;;7.93;;
13660;SDS011;6903;49.480;11.102;2022-08-18T07:59:15;6.25;;;5.75;;
13660;SDS011;6903;49.480;11.102;2022-08-18T08:02:08;6.78;;;6.20;;
13660;SDS011;6903;49.480;11.102;2022-08-18T08:04:46;9.05;;;8.13;;
13660;SDS011;6903;49.480;11.102;2022-08-18T08:10:46;8.23;;;7.43;;
13660;SDS011;6903;49.480;11.102;2022-08-18T08:18:53;7.88;;;7.10;;
13660;SDS011;6903;49.480;11.102;2022-08-18T08:21:28;8.98;;;8.07;;
13660;SDS011;6903;49.480;11.102;2022-08-18T08:24:12;9.23;;;8.43;;
13660;SDS011;6903;49.480;11.102;2022-08-18T08:26:51;9.15;;;8.35;;
13660;SDS011;6903;49.480;11.102;2022-08-18T08:29:53;9.27;;;8.38;;
13660;SDS011;6903;49.480;11.102;2022-08-18T08:32:33;7.82;;;7.20;;
13660;SDS011;6903;49.480;11.102;2022-08-18T08:35:10;8.35;;;7.65;;
13660;SDS011;6903;49.480;11.102;2022-08-18T08:37:52;8.00;;;7.20;;
13660;SDS011;6903;49.480;11.102;2022-08-18T08:40:25;9.02;;;7.72;;
13660;SDS011;6903;49.480;11.102;2022-08-18T08:42:58;7.93;;;7.05;;
13660;SDS011;6903;49.480;11.102;2022-08-18T08:45:31;7.97;;;7.20;;
13660;SDS011;6903;49.480;11.102;2022-08-18T08:48:01;6.97;;;6.40;;
13660;SDS011;6903;49.480;11.102;2022-08-18T08:50:46;8.90;;;7.32;;
13660;SDS011;6903;49.480;11.102;2022-08-18T08:53:20;7.55;;;6.95;;
13660;SDS011;6903;49.480;11.102;2022-08-18T08:55:52;7.68;;;6.97;;
13660;SDS011;6903;49.480;11.102;2022-08-18T08:58:24;8.05;;;7.25;;
13660;SDS011;6903;49.480;11.102;2022-08-18T09:01:04;7.13;;;6.43;;
13660;SDS011;6903;49.480;11.102;2022-08-18T09:03:53;7.75;;;7.00;;
13660;SDS011;6903;49.480;11.102;2022-08-18T09:06:43;7.10;;;6.57;;
13660;SDS011;6903;49.480;11.102;2022-08-18T09:11:48;7.47;;;6.78;;
13660;SDS011;6903;49.480;11.102;2022-08-18T09:20:26;7.05;;;6.45;;
13660;SDS011;6903;49.480;11.102;2022-08-18T09:23:15;6.35;;;5.78;;
13660;SDS011;6903;49.480;11.102;2022-08-18T09:28:20;6.32;;;5.72;;
13660;SDS011;6903;49.480;11.102;2022-08-18T09:38:58;5.75;;;5.25;;
13660;SDS011;6903;49.480;11.102;2022-08-18T09:41:55;6.10;;;5.60;;
13660;SDS011;6903;49.480;11.102;2022-08-18T09:47:09;5.60;;;5.20;;
13660;SDS011;6903;49.480;11.102;2022-08-18T09:49:44;6.82;;;6.00;;
13660;SDS011;6903;49.480;11.102;2022-08-18T09:54:53;6.78;;;6.18;;
13660;SDS011;6903;49.480;11.102;2022-08-18T09:57:23;6.30;;;5.72;;
13660;SDS011;6903;49.480;11.102;2022-08-18T10:10:36;6.60;;;5.97;;
13660;SDS011;6903;49.480;11.102;2022-08-18T10:13:14;6.63;;;6.03;;
13660;SDS011;6903;49.480;11.102;2022-08-18T10:15:56;6.65;;;6.05;;
13660;SDS011;6903;49.480;11.102;2022-08-18T10:21:21;7.60;;;5.80;;
13660;SDS011;6903;49.480;11.102;2022-08-18T10:31:27;6.68;;;5.97;;
13660;SDS011;6903;49.480;11.102;2022-08-18T10:33:55;7.25;;;6.55;;
13660;SDS011;6903;49.480;11.102;2022-08-18T10:39:10;6.90;;;6.40;;
13660;SDS011;6903;49.480;11.102;2022-08-18T10:41:43;6.95;;;6.00;;
13660;SDS011;6903;49.480;11.102;2022-08-18T10:44:15;6.40;;;5.80;;
13660;SDS011;6903;49.480;11.102;2022-08-18T10:46:42;9.55;;;6.80;;
13660;SDS011;6903;49.480;11.102;2022-08-18T10:51:45;7.45;;;6.70;;
13660;SDS011;6903;49.480;11.102;2022-08-18T10:54:22;6.47;;;5.88;;
13660;SDS011;6903;49.480;11.102;2022-08-18T10:57:11;7.05;;;5.97;;
13660;SDS011;6903;49.480;11.102;2022-08-18T11:05:28;7.13;;;6.50;;
13660;SDS011;6903;49.480;11.102;2022-08-18T11:07:58;9.00;;;6.63;;
13660;SDS011;6903;49.480;11.102;2022-08-18T11:10:36;7.10;;;6.50;;
13660;SDS011;6903;49.480;11.102;2022-08-18T11:13:28;6.32;;;5.72;;
13660;SDS011;6903;49.480;11.102;2022-08-18T11:16:47;7.35;;;6.60;;
13660;SDS011;6903;49.480;11.102;2022-08-18T11:19:07;7.03;;;6.40;;
13660;SDS011;6903;49.480;11.102;2022-08-18T11:26:44;7.40;;;6.63;;
13660;SDS011;6903;49.480;11.102;2022-08-18T11:29:33;7.05;;;6.45;;
13660;SDS011;6903;49.480;11.102;2022-08-18T11:37:12;7.22;;;6.53;;
13660;SDS011;6903;49.480;11.102;2022-08-18T11:39:46;7.53;;;6.68;;
13660;SDS011;6903;49.480;11.102;2022-08-18T11:42:13;8.38;;;6.22;;
13660;SDS011;6903;49.480;11.102;2022-08-18T11:44:40;6.88;;;6.38;;
13660;SDS011;6903;49.480;11.102;2022-08-18T11:47:13;7.63;;;6.90;;
13660;SDS011;6903;49.480;11.102;2022-08-18T11:49:52;6.97;;;6.28;;
13660;SDS011;6903;49.480;11.102;2022-08-18T11:52:27;7.20;;;6.57;;
13660;SDS011;6903;49.480;11.102;2022-08-18T11:54:58;7.60;;;6.95;;
13660;SDS011;6903;49.480;11.102;2022-08-18T11:57:27;6.93;;;6.22;;
13660;SDS011;6903;49.480;11.102;2022-08-18T11:59:54;6.60;;;6.00;;
13660;SDS011;6903;49.480;11.102;2022-08-18T12:02:20;6.57;;;6.07;;
13660;SDS011;6903;49.480;11.102;2022-08-18T12:04:53;7.30;;;6.72;;
13660;SDS011;6903;49.480;11.102;2022-08-18T12:07:30;7.25;;;6.50;;
13660;SDS011;6903;49.480;11.102;2022-08-18T12:12:48;7.75;;;7.03;;
13660;SDS011;6903;49.480;11.102;2022-08-18T12:17:41;7.68;;;6.85;;
13660;SDS011;6903;49.480;11.102;2022-08-18T12:20:08;7.75;;;7.05;;
13660;SDS011;6903;49.480;11.102;2022-08-18T12:22:34;6.97;;;6.38;;
13660;SDS011;6903;49.480;11.102;2022-08-18T12:25:02;7.43;;;6.65;;
13660;SDS011;6903;49.480;11.102;2022-08-18T12:27:29;6.93;;;6.25;;
13660;SDS011;6903;49.480;11.102;2022-08-18T12:29:56;6.85;;;6.05;;
13660;SDS011;6903;49.480;11.102;2022-08-18T12:32:22;6.95;;;6.30;;
13660;SDS011;6903;49.480;11.102;2022-08-18T12:34:50;7.68;;;7.00;;
13660;SDS011;6903;49.480;11.102;2022-08-18T12:37:23;7.57;;;6.97;;
13660;SDS011;6903;49.480;11.102;2022-08-18T12:39:51;8.00;;;7.25;;
13660;SDS011;6903;49.480;11.102;2022-08-18T12:42:17;8.10;;;6.43;;
13660;SDS011;6903;49.480;11.102;2022-08-18T12:44:43;7.53;;;6.82;;
13660;SDS011;6903;49.480;11.102;2022-08-18T12:47:10;7.47;;;6.72;;
13660;SDS011;6903;49.480;11.102;2022-08-18T12:49:37;8.15;;;6.90;;
13660;SDS011;6903;49.480;11.102;2022-08-18T12:52:02;7.00;;;6.40;;
13660;SDS011;6903;49.480;11.102;2022-08-18T12:54:28;7.97;;;6.50;;
13660;SDS011;6903;49.480;11.102;2022-08-18T12:56:54;7.15;;;6.55;;
13660;SDS011;6903;49.480;11.102;2022-08-18T12:59:21;7.07;;;6.47;;
13660;SDS011;6903;49.480;11.102;2022-08-18T13:01:47;6.68;;;6.07;;
13660;SDS011;6903;49.480;11.102;2022-08-18T13:04:12;7.18;;;6.00;;
13660;SDS011;6903;49.480;11.102;2022-08-18T13:06:39;7.05;;;6.40;;
13660;SDS011;6903;49.480;11.102;2022-08-18T13:09:13;7.22;;;6.22;;
13660;SDS011;6903;49.480;11.102;2022-08-18T13:11:39;6.75;;;6.15;;
13660;SDS011;6903;49.480;11.102;2022-08-18T13:14:06;6.78;;;5.93;;
13660;SDS011;6903;49.480;11.102;2022-08-18T13:16:33;6.60;;;5.90;;
13660;SDS011;6903;49.480;11.102;2022-08-18T13:18:59;9.10;;;6.10;;
13660;SDS011;6903;49.480;11.102;2022-08-18T13:21:26;6.30;;;5.80;;
13660;SDS011;6903;49.480;11.102;2022-08-18T13:23:52;6.13;;;5.53;;
13660;SDS011;6903;49.480;11.102;2022-08-18T13:26:20;6.93;;;5.40;;
13660;SDS011;6903;49.480;11.102;2022-08-18T13:28:50;4.85;;;4.43;;
13660;SDS011;6903;49.480;11.102;2022-08-18T13:31:15;5.05;;;4.63;;
13660;SDS011;6903;49.480;11.102;2022-08-18T13:33:40;6.65;;;5.20;;
13660;SDS011;6903;49.480;11.102;2022-08-18T13:36:06;5.90;;;5.40;;
13660;SDS011;6903;49.480;11.102;2022-08-18T13:38:32;6.50;;;5.90;;
13660;SDS011;6903;49.480;11.102;2022-08-18T13:40:58;5.95;;;5.45;;
13660;SDS011;6903;49.480;11.102;2022-08-18T13:43:38;7.25;;;6.28;;
13660;SDS011;6903;49.480;11.102;2022-08-18T13:46:09;5.93;;;5.53;;
13660;SDS011;6903;49.480;11.102;2022-08-18T13:48:37;6.43;;;5.47;;
13660;SDS011;6903;49.480;11.102;2022-08-18T13:51:04;5.78;;;5.00;;
13660;SDS011;6903;49.480;11.102;2022-08-18T13:53:32;6.07;;;5.32;;
13660;SDS011;6903;49.480;11.102;2022-08-18T13:55:58;6.07;;;5.57;;
13660;SDS011;6903;49.480;11.102;2022-08-18T13:58:23;6.50;;;5.90;;
13660;SDS011;6903;49.480;11.102;2022-08-18T14:00:49;6.82;;;6.13;;
13660;SDS011;6903;49.480;11.102;2022-08-18T14:03:19;6.38;;;5.88;;
13660;SDS011;6903;49.480;11.102;2022-08-18T14:05:47;6.30;;;5.70;;
13660;SDS011;6903;49.480;11.102;2022-08-18T14:08:13;6.70;;;6.10;;
13660;SDS011;6903;49.480;11.102;2022-08-18T14:10:39;7.15;;;6.45;;
13660;SDS011;6903;49.480;11.102;2022-08-18T14:13:04;6.47;;;5.80;;
13660;SDS011;6903;49.480;11.102;2022-08-18T14:15:31;7.03;;;5.32;;
13660;SDS011;6903;49.480;11.102;2022-08-18T14:18:00;6.10;;;5.50;;
13660;SDS011;6903;49.480;11.102;2022-08-18T14:20:25;7.05;;;5.95;;
13660;SDS011;6903;49.480;11.102;2022-08-18T14:23:09;6.47;;;5.97;;
13660;SDS011;6903;49.480;11.102;2022-08-18T14:25:54;6.50;;;5.88;;
13660;SDS011;6903;49.480;11.102;2022-08-18T14:28:38;6.97;;;5.32;;
13660;SDS011;6903;49.480;11.102;2022-08-18T14:31:03;7.13;;;6.43;;
13660;SDS011;6903;49.480;11.102;2022-08-18T14:33:29;7.10;;;6.40;;
13660;SDS011;6903;49.480;11.102;2022-08-18T14:35:56;6.07;;;5.57;;
13660;SDS011;6903;49.480;11.102;2022-08-18T14:38:21;8.18;;;5.35;;
13660;SDS011;6903;49.480;11.102;2022-08-18T14:40:47;7.43;;;6.03;;
13660;SDS011;6903;49.480;11.102;2022-08-18T14:43:15;6.40;;;5.80;;
13660;SDS011;6903;49.480;11.102;2022-08-18T14:45:46;5.82;;;5.43;;
13660;SDS011;6903;49.480;11.102;2022-08-18T14:48:13;7.28;;;5.95;;
13660;SDS011;6903;49.480;11.102;2022-08-18T14:50:41;6.38;;;5.90;;
13660;SDS011;6903;49.480;11.102;2022-08-18T14:53:08;7.30;;;6.47;;
13660;SDS011;6903;49.480;11.102;2022-08-18T14:55:34;7.38;;;6.15;;
13660;SDS011;6903;49.480;11.102;2022-08-18T14:57:59;7.20;;;6.47;;
13660;SDS011;6903;49.480;11.102;2022-08-18T15:00:25;6.72;;;5.97;;
13660;SDS011;6903;49.480;11.102;2022-08-18T15:02:51;6.88;;;6.28;;
13660;SDS011;6903;49.480;11.102;2022-08-18T15:05:17;6.57;;;5.97;;
13660;SDS011;6903;49.480;11.102;2022-08-18T15:07:42;6.65;;;5.95;;
13660;SDS011;6903;49.480;11.102;2022-08-18T15:10:08;5.95;;;4.90;;
13660;SDS011;6903;49.480;11.102;2022-08-18T15:12:36;6.70;;;6.10;;
13660;SDS011;6903;49.480;11.102;2022-08-18T15:15:05;6.88;;;6.28;;
13660;SDS011;6903;49.480;11.102;2022-08-18T15:17:33;6.72;;;6.13;;
13660;SDS011;6903;49.480;11.102;2022-08-18T15:20:00;6.78;;;6.28;;
13660;SDS011;6903;49.480;11.102;2022-08-18T15:22:25;7.00;;;6.30;;
13660;SDS011;6903;49.480;11.102;2022-08-18T15:25:09;7.15;;;6.35;;
13660;SDS011;6903;49.480;11.102;2022-08-18T15:27:53;10.15;;;6.65;;
13660;SDS011;6903;49.480;11.102;2022-08-18T15:30:18;7.00;;;5.88;;
13660;SDS011;6903;49.480;11.102;2022-08-18T15:32:45;6.72;;;6.22;;
13660;SDS011;6903;49.480;11.102;2022-08-18T15:35:12;6.25;;;5.47;;
13660;SDS011;6903;49.480;11.102;2022-08-18T15:37:40;6.80;;;6.20;;
13660;SDS011;6903;49.480;11.102;2022-08-18T15:40:08;6.63;;;6.00;;
13660;SDS011;6903;49.480;11.102;2022-08-18T15:42:46;6.32;;;5.72;;
13660;SDS011;6903;49.480;11.102;2022-08-18T15:45:14;9.95;;;6.55;;
13660;SDS011;6903;49.480;11.102;2022-08-18T15:47:44;7.45;;;6.72;;
13660;SDS011;6903;49.480;11.102;2022-08-18T15:50:10;6.35;;;5.85;;
13660;SDS011;6903;49.480;11.102;2022-08-18T15:52:43;6.82;;;6.32;;
13660;SDS011;6903;49.480;11.102;2022-08-18T15:55:13;7.55;;;6.55;;
13660;SDS011;6903;49.480;11.102;2022-08-18T15:57:39;6.88;;;6.05;;
13660;SDS011;6903;49.480;11.102;2022-08-18T16:00:04;7.85;;;5.97;;
13660;SDS011;6903;49.480;11.102;2022-08-18T16:02:30;7.00;;;6.40;;
13660;SDS011;6903;49.480;11.102;2022-08-18T16:04:56;7.20;;;6.35;;
13660;SDS011;6903;49.480;11.102;2022-08-18T16:07:21;9.50;;;6.15;;
13660;SDS011;6903;49.480;11.102;2022-08-18T16:09:46;8.63;;;6.40;;
13660;SDS011;6903;49.480;11.102;2022-08-18T16:12:12;8.93;;;6.90;;
13660;SDS011;6903;49.480;11.102;2022-08-18T16:14:38;10.10;;;6.95;;
13660;SDS011;6903;49.480;11.102;2022-08-18T16:17:04;7.28;;;6.57;;
13660;SDS011;6903;49.480;11.102;2022-08-18T16:19:30;6.82;;;6.22;;
13660;SDS011;6903;49.480;11.102;2022-08-18T16:21:55;7.47;;;6.78;;
13660;SDS011;6903;49.480;11.102;2022-08-18T16:24:21;9.13;;;7.05;;
13660;SDS011;6903;49.480;11.102;2022-08-18T16:26:47;6.95;;;6.32;;
13660;SDS011;6903;49.480;11.102;2022-08-18T16:29:13;7.13;;;6.53;;
13660;SDS011;6903;49.480;11.102;2022-08-18T16:31:38;9.75;;;6.90;;
13660;SDS011;6903;49.480;11.102;2022-08-18T16:34:04;7.28;;;5.30;;
13660;SDS011;6903;49.480;11.102;2022-08-18T16:36:30;6.82;;;6.20;;
13660;SDS011;6903;49.480;11.102;2022-08-18T16:38:56;9.68;;;6.57;;
13660;SDS011;6903;49.480;11.102;2022-08-18T16:41:21;10.35;;;6.15;;
13660;SDS011;6903;49.480;11.102;2022-08-18T16:43:46;8.88;;;7.00;;
13660;SDS011;6903;49.480;11.102;2022-08-18T16:46:14;7.70;;;5.93;;
13660;SDS011;6903;49.480;11.102;2022-08-18T16:48:41;6.68;;;6.07;;